Home > Products > Valid Products > TAF

000
FTUS43 KEAX 041100
TAFMCI
TAF
KMCI 041120Z 0412/0512 14005KT 6SM BR SKC
      TEMPO 0412/0413 5SM BR
     FM041300 14005KT P6SM SKC=



000
FTUS43 KEAX 041100
TAFMKC
TAF
KMKC 041120Z 0412/0512 14005KT 6SM BR SKC
      TEMPO 0412/0413 5SM BR
     FM041300 14005KT P6SM SKC=



000
FTUS43 KEAX 041100
TAFSTJ
TAF
KSTJ 041120Z 0412/0512 VRB05KT 6SM BR SKC
      TEMPO 0412/0413 1SM BR VV002
     FM041300 15005KT P6SM SKC=



000
FTUS43 KEAX 040500
TAFMCI
TAF
KMCI 040533Z 0406/0506 14004KT P6SM SKC=



000
FTUS43 KEAX 040500
TAFMKC
TAF
KMKC 040533Z 0406/0506 14004KT P6SM SKC=



000
FTUS43 KEAX 040500
TAFSTJ
TAF
KSTJ 040533Z 0406/0506 VRB04KT P6SM SKC
      TEMPO 0411/0413 1SM BR
     FM041300 15005KT P6SM SKC=



000
FTUS43 KEAX 040500
TAFSTJ
TAF
KSTJ 040533Z 0406/0506 VRB04KT P6SM SKC
      TEMPO 0411/0413 1SM BR
     FM041300 15005KT P6SM SKC=



000
FTUS43 KEAX 040500
TAFMCI
TAF
KMCI 040533Z 0406/0506 14004KT P6SM SKC=



000
FTUS43 KEAX 040500
TAFMKC
TAF
KMKC 040533Z 0406/0506 14004KT P6SM SKC=



000
FTUS43 KEAX 032300
TAFMCI
TAF
KMCI 032320Z 0400/0424 VRB04KT P6SM SKC=



000
FTUS43 KEAX 032300
TAFSTJ
TAF
KSTJ 032320Z 0400/0424 VRB04KT P6SM SKC
      TEMPO 0411/0413 1SM BR
     FM041300 15005KT P6SM SKC=



000
FTUS43 KEAX 032300
TAFMKC
TAF
KMKC 032320Z 0400/0424 01007KT P6SM SKC=



000
FTUS43 KEAX 031700
TAFSTJ
TAF
KSTJ 031736Z 0318/0418 04006KT P6SM FEW050
     FM041200 15005KT P6SM SKC=



000
FTUS43 KEAX 031700
TAFMCI
TAF
KMCI 031736Z 0318/0418 04007KT P6SM FEW050
     FM041200 14005KT P6SM SKC=



000
FTUS43 KEAX 031700
TAFMKC
TAF
KMKC 031736Z 0318/0418 05007KT P6SM FEW050
     FM041200 13005KT P6SM SKC=



000
FTUS43 KEAX 031100
TAFMKC
TAF
KMKC 031125Z 0312/0412 07008KT P6SM BKN030
     FM031700 07007KT P6SM SCT030=



000
FTUS43 KEAX 031100
TAFSTJ
TAF
KSTJ 031125Z 0312/0412 07008KT P6SM BKN035
      TEMPO 0312/0314 BKN030
     FM031700 07007KT P6SM SCT030=



000
FTUS43 KEAX 031100
TAFMCI
TAF
KMCI 031125Z 0312/0412 07008KT P6SM BKN030
     FM031700 07007KT P6SM SCT030=



000
FTUS43 KEAX 030800 AAA
TAFMKC
TAF AMD
KMKC 030817Z 0308/0406 08006KT 6SM BR SCT025 BKN045
      TEMPO 0308/0311 5SM BR OVC025
     FM031300 06005KT P6SM SCT030=



000
FTUS43 KEAX 030800 AAA
TAFSTJ
TAF AMD
KSTJ 030817Z 0308/0406 09005KT 6SM BR SCT025 BKN045
      TEMPO 0308/0311 5SM BR OVC025
     FM031300 06005KT P6SM SCT030=



000
FTUS43 KEAX 030800 AAA
TAFMCI
TAF AMD
KMCI 030817Z 0308/0406 07008KT 6SM BR SCT025 BKN045
      TEMPO 0308/0311 5SM BR OVC025
     FM031300 07007KT P6SM SCT030=



000
FTUS43 KEAX 030500
TAFSTJ
TAF
KSTJ 030530Z 0306/0406 09005KT 5SM BR BKN015 OVC030
      TEMPO 0307/0311 2SM BR OVC010
     FM031200 06005KT 5SM BR SCT015=



000
FTUS43 KEAX 030500
TAFMKC
TAF
KMKC 030530Z 0306/0406 08006KT 5SM BR SCT010 BKN020
      TEMPO 0307/0311 2SM BR OVC010
     FM031200 06005KT 5SM BR SCT015=



000
FTUS43 KEAX 030500
TAFMCI
TAF
KMCI 030530Z 0306/0406 07008KT 5SM BR SCT015 BKN045
      TEMPO 0307/0311 2SM BR OVC010
     FM031300 07007KT 5SM BR SCT015=



000
FTUS43 KEAX 030300 AAB
TAFMKC
TAF AMD
KMKC 030321Z 0303/0324 08006KT P6SM SCT010 BKN020
     FM031000 06005KT 5SM BR SCT015=



000
FTUS43 KEAX 030300 AAA
TAFSTJ
TAF AMD
KSTJ 030313Z 0303/0324 09005KT P6SM BKN015 OVC030
     FM031000 06005KT 5SM BR SCT015=



000
FTUS43 KEAX 030300 AAA
TAFSTJ
TAF AMD
KSTJ 030313Z 0303/0324 09005KT P6SM BKN015 OVC030
     FM031000 06005KT 5SM BR SCT015=



000
FTUS43 KEAX 030300 AAA
TAFMKC
TAF AMD
KMKC 030311Z 0303/0324 08006KT P6SM SCT010 BKN150
     FM031000 06005KT 5SM BR SCT015=



000
FTUS43 KEAX 030300 AAA
TAFMKC
TAF AMD
KMKC 030311Z 0303/0324 08006KT P6SM SCT010 BKN150
     FM031000 06005KT 5SM BR SCT015=



000
FTUS43 KEAX 030300 AAA
TAFMCI
TAF AMD
KMCI 030310Z 0303/0324 07008KT 5SM BR SCT015 BKN045
      TEMPO 0307/0311 2SM BR OVC010
     FM031300 07007KT 5SM BR SCT015=



000
FTUS43 KEAX 030300 AAA
TAFMCI
TAF AMD
KMCI 030310Z 0303/0324 07008KT 5SM BR SCT015 BKN045
      TEMPO 0307/0311 2SM BR OVC010
     FM031300 07007KT 5SM BR SCT015=



000
FTUS43 KEAX 022300
TAFMKC
TAF
KMKC 022330Z 0300/0324 08007KT P6SM VCSH SCT015 OVC030
      TEMPO 0301/0304 4SM -RA BR BKN015
     FM030400 08006KT P6SM SCT070 BKN150
     FM031000 06005KT 5SM BR SCT015=



000
FTUS43 KEAX 022300
TAFMCI
TAF
KMCI 022330Z 0300/0324 07008KT P6SM VCSH SCT015 BKN070
      TEMPO 0300/0303 3SM -RA BR BKN015
     FM030300 09006KT P6SM SCT070 BKN150
     FM031000 07007KT 5SM BR SCT015=



000
FTUS43 KEAX 022300
TAFMKC
TAF
KMKC 022330Z 0300/0324 08007KT P6SM VCSH SCT015 OVC030
      TEMPO 0301/0304 4SM -RA BR BKN015
     FM030400 08006KT P6SM SCT070 BKN150
     FM031000 06005KT 5SM BR SCT015=



000
FTUS43 KEAX 022300
TAFSTJ
TAF
KSTJ 022330Z 0300/0324 09007KT P6SM VCSH BKN015 OVC100
      TEMPO 0300/0303 3SM -RA BR
     FM030300 10005KT P6SM SCT015 BKN150
     FM031000 06005KT 5SM BR SCT015=



000
FTUS43 KEAX 022300
TAFMCI
TAF
KMCI 022330Z 0300/0324 07008KT P6SM VCSH SCT015 BKN070
      TEMPO 0300/0303 3SM -RA BR BKN015
     FM030300 09006KT P6SM SCT070 BKN150
     FM031000 07007KT 5SM BR SCT015=



000
FTUS43 KEAX 022300
TAFSTJ
TAF
KSTJ 022330Z 0300/0324 09007KT P6SM VCSH BKN015 OVC100
      TEMPO 0300/0303 3SM -RA BR
     FM030300 10005KT P6SM SCT015 BKN150
     FM031000 06005KT 5SM BR SCT015=



000
FTUS43 KEAX 021700
TAFMCI
TAF
KMCI 021720Z 0218/0318 07008KT P6SM OVC010
     FM022000 07007KT P6SM VCSH BKN015 OVC100
     FM030000 09006KT P6SM BKN150
     FM031000 07007KT 5SM BR SCT015=



000
FTUS43 KEAX 021700
TAFSTJ
TAF
KSTJ 021720Z 0218/0318 07007KT P6SM OVC010
     FM021900 09007KT P6SM VCSH BKN015 OVC100
     FM030000 10005KT P6SM BKN150
     FM031000 06005KT 5SM BR SCT015=



000
FTUS43 KEAX 021700
TAFMKC
TAF
KMKC 021720Z 0218/0318 06008KT P6SM OVC015
     FM022000 07007KT P6SM VCSH BKN015 OVC100
     FM030000 08006KT P6SM BKN150
     FM031000 06005KT 5SM BR SCT015=



000
FTUS43 KEAX 021700
TAFMCI
TAF
KMCI 021720Z 0218/0318 07008KT P6SM OVC010
     FM022000 07007KT P6SM VCSH BKN015 OVC100
     FM030000 09006KT P6SM BKN150
     FM031000 07007KT 5SM BR SCT015=



000
FTUS43 KEAX 021700
TAFSTJ
TAF
KSTJ 021720Z 0218/0318 07007KT P6SM OVC010
     FM021900 09007KT P6SM VCSH BKN015 OVC100
     FM030000 10005KT P6SM BKN150
     FM031000 06005KT 5SM BR SCT015=



000
FTUS43 KEAX 021700
TAFMKC
TAF
KMKC 021720Z 0218/0318 06008KT P6SM OVC015
     FM022000 07007KT P6SM VCSH BKN015 OVC100
     FM030000 08006KT P6SM BKN150
     FM031000 06005KT 5SM BR SCT015=



000
FTUS43 KEAX 021500 AAA
TAFSTJ
TAF AMD
KSTJ 021524Z 0215/0312 06006KT P6SM BKN008 OVC019
     FM021800 04009KT P6SM SCT030
     FM030900 06005KT 3SM BR SCT015=



000
FTUS43 KEAX 021500 AAA
TAFMKC
TAF AMD
KMKC 021523Z 0215/0312 06009KT 6SM BR BKN011 OVC018
     FM021800 04009KT P6SM SCT030
     FM030900 06005KT 3SM BR SCT015=



000
FTUS43 KEAX 021500 AAB
TAFMCI
TAF AMD
KMCI 021522Z 0215/0312 05010KT P6SM OVC008
     FM021800 04009KT P6SM SCT025
     FM030900 06005KT 3SM BR SCT015=



000
FTUS43 KEAX 021300 AAA
TAFMCI
TAF AMD
KMCI 021313Z 0213/0312 05010KT 5SM BR OVC008
     FM021600 04009KT P6SM SCT025
     FM030900 06005KT 3SM BR SCT015=



000
FTUS43 KEAX 021300 AAA
TAFMCI
TAF AMD
KMCI 021313Z 0213/0312 05010KT 5SM BR OVC008
     FM021600 04009KT P6SM SCT025
     FM030900 06005KT 3SM BR SCT015=



000
FTUS43 KEAX 021100
TAFSTJ
TAF
KSTJ 021121Z 0212/0312 06006KT P6SM BKN010 OVC019
     FM021700 04009KT P6SM SCT030
     FM030900 06005KT 3SM BR SCT015=



000
FTUS43 KEAX 021100
TAFMCI
TAF
KMCI 021121Z 0212/0312 05010KT 6SM BR SCT011 OVC020
     FM021600 04009KT P6SM SCT025
     FM030900 06005KT 3SM BR SCT015=



000
FTUS43 KEAX 021100
TAFMKC
TAF
KMKC 021121Z 0212/0312 06009KT 6SM BR BKN011 OVC018
     FM021600 04009KT P6SM SCT030
     FM030900 06005KT 3SM BR SCT015=



000
FTUS43 KEAX 021100
TAFMKC
TAF
KMKC 021121Z 0212/0312 06009KT 6SM BR BKN011 OVC018
     FM021600 04009KT P6SM SCT030
     FM030900 06005KT 3SM BR SCT015=



000
FTUS43 KEAX 021100
TAFSTJ
TAF
KSTJ 021121Z 0212/0312 06006KT P6SM BKN010 OVC019
     FM021700 04009KT P6SM SCT030
     FM030900 06005KT 3SM BR SCT015=



000
FTUS43 KEAX 021100
TAFMCI
TAF
KMCI 021121Z 0212/0312 05010KT 6SM BR SCT011 OVC020
     FM021600 04009KT P6SM SCT025
     FM030900 06005KT 3SM BR SCT015=



000
FTUS43 KEAX 021000 AAB
TAFMCI
TAF AMD
KMCI 021026Z 0210/0306 06009KT 6SM BR SCT011 OVC020
     FM021600 04009KT P6SM SCT025=



000
FTUS43 KEAX 021000 AAA
TAFMKC
TAF AMD
KMKC 021005Z 0210/0306 06009KT P6SM BKN012 OVC016
     FM021700 04009KT P6SM SCT030=



000
FTUS43 KEAX 021000 AAA
TAFMKC
TAF AMD
KMKC 021005Z 0210/0306 06009KT P6SM BKN012 OVC016
     FM021700 04009KT P6SM SCT030=



000
FTUS43 KEAX 020900 AAA
TAFMCI
TAF AMD
KMCI 020932Z 0210/0306 05010KT P6SM OVC010
     FM021800 04009KT P6SM SCT025=



000
FTUS43 KEAX 020900 AAA
TAFSTJ
TAF AMD
KSTJ 020932Z 0210/0306 06006KT P6SM BKN016 OVC022
     FM021700 04009KT P6SM SCT030=



000
FTUS43 KEAX 020900 AAA
TAFMCI
TAF AMD
KMCI 020932Z 0210/0306 05010KT P6SM OVC010
     FM021800 04009KT P6SM SCT025=



000
FTUS43 KEAX 020900 AAA
TAFSTJ
TAF AMD
KSTJ 020932Z 0210/0306 06006KT P6SM BKN016 OVC022
     FM021700 04009KT P6SM SCT030=



000
FTUS43 KEAX 020500
TAFMKC
TAF
KMKC 020534Z 0206/0306 06011KT P6SM BKN010 OVC017
      TEMPO 0210/0213 3SM BR BKN035
     FM021300 04009KT P6SM SCT030=



000
FTUS43 KEAX 020500
TAFMCI
TAF
KMCI 020534Z 0206/0306 07010KT P6SM SCT015 SCT100
      TEMPO 0210/0213 3SM BR BKN035
     FM021300 04009KT P6SM SCT025=



000
FTUS43 KEAX 020500
TAFSTJ
TAF
KSTJ 020534Z 0206/0306 06008KT P6SM FEW015 OVC045
      TEMPO 0210/0213 3SM BR BKN035
     FM021300 04009KT P6SM SCT030=



000
FTUS43 KEAX 020400 AAA
TAFMCI
TAF AMD
KMCI 020415Z 0204/0224 06008KT P6SM FEW020
     FM020700 04009KT P6SM BKN025=



000
FTUS43 KEAX 020400 AAA
TAFSTJ
TAF AMD
KSTJ 020415Z 0204/0224 07011KT P6SM FEW027 OVC040=



000
FTUS43 KEAX 020100 AAC
TAFMKC
TAF AMD
KMKC 020140Z 0202/0224 09009KT P6SM VCTS SCT040CB
     FM020300 07010KT P6SM VCSH BKN035
     FM020700 04009KT P6SM BKN030=



000
FTUS43 KEAX 020100 AAC
TAFMKC
TAF AMD
KMKC 020140Z 0202/0224 09009KT P6SM VCTS SCT040CB
     FM020300 07010KT P6SM VCSH BKN035
     FM020700 04009KT P6SM BKN030=



000
FTUS43 KEAX 020100 AAB
TAFMKC
TAF AMD
KMKC 020139Z 0202/0224 09009KT P6SM VCTS BKN040CB
     FM020300 07010KT P6SM VCSH BKN035
     FM020700 04009KT P6SM BKN030=



000
FTUS43 KEAX 020100 AAB
TAFMKC
TAF AMD
KMKC 020139Z 0202/0224 09009KT P6SM VCTS BKN040CB
     FM020300 07010KT P6SM VCSH BKN035
     FM020700 04009KT P6SM BKN030=



000
FTUS43 KEAX 020000 AAA
TAFMKC
TAF AMD
KMKC 020012Z 0200/0224 09009KT P6SM VCTS BKN040CB
      TEMPO 0200/0202 3SM TSRA BKN020CB
     FM020300 07010KT P6SM VCSH BKN035
     FM020700 04009KT P6SM BKN030=



000
FTUS43 KEAX 020000 AAA
TAFMKC
TAF AMD
KMKC 020012Z 0200/0224 09009KT P6SM VCTS BKN040CB
      TEMPO 0200/0202 3SM TSRA BKN020CB
     FM020300 07010KT P6SM VCSH BKN035
     FM020700 04009KT P6SM BKN030=



000
FTUS43 KEAX 012300
TAFMKC
TAF
KMKC 012330Z 0200/0224 09009KT P6SM VCTS BKN040CB
      TEMPO 0200/0203 3SM TSRA BKN020CB
     FM020300 07010KT P6SM VCSH BKN035
     FM020700 04009KT P6SM BKN030=



000
FTUS43 KEAX 012300
TAFSTJ
TAF
KSTJ 012330Z 0200/0224 05006KT P6SM VCTS SCT030CB BKN100
     FM020300 04010KT P6SM BKN025=



000
FTUS43 KEAX 012300
TAFMCI
TAF
KMCI 012330Z 0200/0224 12009KT P6SM VCTS SCT030CB BKN060
     FM020300 06010KT P6SM VCSH BKN030
     FM020700 04009KT P6SM BKN025=



000
FTUS43 KEAX 012300
TAFSTJ
TAF
KSTJ 012330Z 0200/0224 05006KT P6SM VCTS SCT030CB BKN100
     FM020300 04010KT P6SM BKN025=



000
FTUS43 KEAX 012300
TAFMCI
TAF
KMCI 012330Z 0200/0224 12009KT P6SM VCTS SCT030CB BKN060
     FM020300 06010KT P6SM VCSH BKN030
     FM020700 04009KT P6SM BKN025=



000
FTUS43 KEAX 012300
TAFMKC
TAF
KMKC 012330Z 0200/0224 09009KT P6SM VCTS BKN040CB
      TEMPO 0200/0203 3SM TSRA BKN020CB
     FM020300 07010KT P6SM VCSH BKN035
     FM020700 04009KT P6SM BKN030=



000
FTUS43 KEAX 012000 AAA
TAFMCI
TAF AMD
KMCI 012017Z 0120/0218 18008KT P6SM BKN045
     FM012200 10009KT P6SM VCTS SCT030CB BKN100
     FM020300 06010KT P6SM VCSH BKN030
     FM020700 04009KT P6SM BKN025=



000
FTUS43 KEAX 011700 CCA
TAFSTJ
TAF COR
KSTJ 011741Z 0118/0212 08008KT P6SM BKN025
     FM020000 05006KT P6SM VCTS SCT040CB BKN100
     FM020300 04010KT P6SM BKN025=



000
FTUS43 KEAX 011700
TAFSTJ
TAF
KSTJ 011740Z 0118/0218 09010KT P6SM SCT020
     FM020000 05006KT P6SM VCSH BKN100
     FM020400 04010KT P6SM BKN025=



000
FTUS43 KEAX 011700
TAFMKC
TAF
KMKC 011740Z 0118/0218 14008KT P6SM SCT025 BKN120
     FM011900 10008KT P6SM FEW025 BKN120
     FM012200 09009KT P6SM VCTS BKN040CB
     FM020300 07010KT P6SM VCSH BKN035
     FM020700 04009KT P6SM BKN030=



000
FTUS43 KEAX 011700
TAFMCI
TAF
KMCI 011740Z 0118/0218 07008KT P6SM FEW020 BKN120
     FM012200 07009KT P6SM VCTS SCT030CB BKN100
     FM020300 06010KT P6SM VCSH BKN030
     FM020700 04009KT P6SM BKN025=



000
FTUS43 KEAX 011700
TAFMKC
TAF
KMKC 011740Z 0118/0218 14008KT P6SM SCT025 BKN120
     FM011900 10008KT P6SM FEW025 BKN120
     FM012200 09009KT P6SM VCTS BKN040CB
     FM020300 07010KT P6SM VCSH BKN035
     FM020700 04009KT P6SM BKN030=



000
FTUS43 KEAX 011700
TAFSTJ
TAF
KSTJ 011740Z 0118/0218 09010KT P6SM SCT020
     FM020000 05006KT P6SM VCSH BKN100
     FM020400 04010KT P6SM BKN025=



000
FTUS43 KEAX 011700
TAFMCI
TAF
KMCI 011740Z 0118/0218 07008KT P6SM FEW020 BKN120
     FM012200 07009KT P6SM VCTS SCT030CB BKN100
     FM020300 06010KT P6SM VCSH BKN030
     FM020700 04009KT P6SM BKN025=



000
FTUS43 KEAX 011500 AAA
TAFSTJ
TAF AMD
KSTJ 011513Z 0115/0212 06007KT P6SM VCSH BKN110
      TEMPO 0115/0117 BKN012
     FM011800 08008KT P6SM SCT100
     FM020000 05006KT P6SM VCTS SCT040CB BKN100
     FM020300 04010KT P6SM BKN025=



000
FTUS43 KEAX 011500 AAA
TAFSTJ
TAF AMD
KSTJ 011513Z 0115/0212 06007KT P6SM VCSH BKN110
      TEMPO 0115/0117 BKN012
     FM011800 08008KT P6SM SCT100
     FM020000 05006KT P6SM VCTS SCT040CB BKN100
     FM020300 04010KT P6SM BKN025=



000
FTUS43 KEAX 011500 AAA
TAFMKC
TAF AMD
KMKC 011510Z 0115/0212 18013KT P6SM VCSH BKN120
     FM011900 11008KT P6SM SCT100
     FM012200 09009KT P6SM VCTS BKN040CB
     FM020300 09010KT P6SM VCSH BKN025=



000
FTUS43 KEAX 011500 AAA
TAFMCI
TAF AMD
KMCI 011509Z 0115/0212 18014KT P6SM VCSH BKN120
     FM011800 10008KT P6SM SCT100
     FM012200 08009KT P6SM VCTS BKN040CB
     FM020300 09010KT P6SM VCSH BKN025=



    US Dept of Commerce
    National Oceanic and Atmospheric Administration
    National Weather Service
    1325 East West Highway
    Silver Spring, MD 20910
    Page Author: NWS Internet Services Team
Disclaimer
Information Quality
Credits
Glossary
Privacy Policy
Freedom of Information Act (FOIA)
About Us
Career Opportunities